Terminal Aerodrome Forecast
Issued by NWS Jackson, MS

Home | Current Version | Previous Version | Text Only | Print | Product List | Glossary On
Versions: 1 2 3 4 5 6 7 8 9 10 11 12 13 14 15 16
000
FTUS44 KJAN 291729
TAFHBG
TAF
KHBG 291729Z 2918/3018 VRB06KT P6SM VCTS SCT029CB
     FM300000 00000KT P6SM SCT150
     FM301100 19001KT 4SM BR SKC
     FM301400 28004KT 6SM BR BKN250=

USA.gov is the U.S. government's official web portal to all federal, state and local government web resources and services.